createdAt,value
2018-04-20T00:02:05.698Z,101241.69
2018-04-20T00:04:33.181Z,101245.16
2018-04-20T00:07:00.940Z,101243.70
2018-04-20T00:09:28.426Z,101247.06
2018-04-20T00:11:55.913Z,101246.73
2018-04-20T00:14:23.653Z,101243.22
2018-04-20T00:16:51.145Z,101239.34
2018-04-20T00:19:18.656Z,101238.96
2018-04-20T00:21:46.465Z,101237.69
2018-04-20T00:24:13.953Z,101237.43
2018-04-20T00:26:41.536Z,101237.16
2018-04-20T00:29:09.061Z,101237.59
2018-04-20T00:31:36.545Z,101238.25
2018-04-20T00:34:04.024Z,101237.09
2018-04-20T00:36:31.546Z,101233.44
2018-04-20T00:38:59.028Z,101228.09
2018-04-20T00:41:26.537Z,101225.67
2018-04-20T00:43:54.044Z,101228.70
2018-04-20T00:46:21.529Z,101225.47
2018-04-20T00:48:49.029Z,101221.70
2018-04-20T00:51:16.533Z,101212.30
2018-04-20T00:53:55.633Z,101219.69
2018-04-20T00:56:23.132Z,101216.98
2018-04-20T00:58:50.619Z,101220.93
2018-04-20T01:01:18.384Z,101224.35
2018-04-20T01:03:45.893Z,101224.95
2018-04-20T01:06:13.401Z,101215.66
2018-04-20T01:08:40.901Z,101224.95
2018-04-20T01:11:08.385Z,101213.95
2018-04-20T01:13:36.033Z,101218.59
2018-04-20T01:16:03.566Z,101209.09
2018-04-20T01:18:31.017Z,101215.80
2018-04-20T01:20:58.553Z,101214.44
2018-04-20T01:23:26.032Z,101221.16
2018-04-20T01:25:53.775Z,101217.95
2018-04-20T01:28:21.220Z,101220.27
2018-04-20T01:30:48.705Z,101210.12
2018-04-20T01:33:16.222Z,101219.81
2018-04-20T01:35:43.713Z,101216.38
2018-04-20T01:38:11.345Z,101221.03
2018-04-20T01:40:38.871Z,101216.02
2018-04-20T01:43:06.345Z,101225.72
2018-04-20T01:45:33.886Z,101222.43
2018-04-20T01:48:01.365Z,101220.10
2018-04-20T01:50:29.107Z,101223.09
2018-04-20T01:52:56.589Z,101221.27
2018-04-20T01:55:24.064Z,101228.91
2018-04-20T01:57:51.579Z,101214.28
2018-04-20T02:00:19.066Z,101224.75
2018-04-20T02:02:46.780Z,101221.41
2018-04-20T02:05:14.260Z,101224.02
2018-04-20T02:07:41.741Z,101216.13
2018-04-20T02:10:09.297Z,101219.05
2018-04-20T02:12:36.805Z,101221.62
2018-04-20T02:15:04.322Z,101218.16
2018-04-20T02:17:31.821Z,101215.51
2018-04-20T02:19:59.305Z,101221.67
2018-04-20T02:22:26.814Z,101216.34
2018-04-20T02:24:54.309Z,101210.47
2018-04-20T02:27:21.960Z,101213.96
2018-04-20T02:29:49.480Z,101214.33
2018-04-20T02:32:16.955Z,101217.56
2018-04-20T02:34:44.472Z,101216.10
2018-04-20T02:37:11.953Z,101214.01
2018-04-20T02:39:39.606Z,101209.66
2018-04-20T02:42:07.092Z,101208.41
2018-04-20T02:44:34.575Z,101206.63
2018-04-20T02:47:02.075Z,101213.20
2018-04-20T02:49:29.558Z,101213.48
2018-04-20T02:51:57.177Z,101205.92
2018-04-20T02:54:24.653Z,101207.76
2018-04-20T02:56:52.129Z,101206.50
2018-04-20T02:59:19.625Z,101205.63
2018-04-20T03:01:47.097Z,101212.70
2018-04-20T03:04:14.933Z,101202.59
2018-04-20T03:06:42.405Z,101198.98
2018-04-20T03:09:09.886Z,101192.55
2018-04-20T03:11:37.393Z,101190.56
2018-04-20T03:14:04.883Z,101191.11
2018-04-20T03:16:32.592Z,101188.61
2018-04-20T03:19:00.070Z,101179.76
2018-04-20T03:21:27.570Z,101182.58
2018-04-20T03:23:55.072Z,101183.92
2018-04-20T03:26:22.562Z,101185.73
2018-04-20T03:28:50.269Z,101181.80
2018-04-20T03:31:17.745Z,101178.78
2018-04-20T03:33:45.217Z,101176.20
2018-04-20T03:36:12.728Z,101181.38
2018-04-20T03:38:40.204Z,101180.52
2018-04-20T03:41:07.722Z,101182.05
2018-04-20T03:43:35.201Z,101181.59
2018-04-20T03:46:02.692Z,101179.53
2018-04-20T03:48:30.193Z,101179.39
2018-04-20T03:50:57.674Z,101179.22
2018-04-20T03:53:25.369Z,101177.97
2018-04-20T03:55:52.842Z,101175.30
2018-04-20T03:58:20.352Z,101174.95
2018-04-20T04:00:47.857Z,101177.57
2018-04-20T04:03:15.337Z,101177.10
2018-04-20T04:05:42.857Z,101176.31
2018-04-20T04:08:10.329Z,101178.42
2018-04-20T04:10:37.805Z,101179.88
2018-04-20T04:13:05.314Z,101183.10
2018-04-20T04:15:32.812Z,101187.43
2018-04-20T04:18:12.232Z,101185.26
2018-04-20T04:20:43.332Z,101186.31
2018-04-20T04:23:22.662Z,101189.86
2018-04-20T04:26:01.974Z,101193.18
2018-04-20T04:28:29.484Z,101192.44
2018-04-20T04:30:56.959Z,101197.64
2018-04-20T04:33:24.476Z,101197.69
2018-04-20T04:35:52.851Z,101197.30
2018-04-20T04:38:20.363Z,101196.30
2018-04-20T04:40:47.842Z,101193.66
2018-04-20T04:43:15.329Z,101194.11
2018-04-20T04:45:42.832Z,101193.17
2018-04-20T04:48:10.324Z,101191.27
2018-04-20T04:50:38.013Z,101192.22
2018-04-20T04:53:05.501Z,101195.09
2018-04-20T04:55:32.994Z,101185.02
2018-04-20T04:58:00.496Z,101185.81
2018-04-20T05:00:27.988Z,101184.55
2018-04-20T05:02:55.509Z,101188.27
2018-04-20T05:05:22.997Z,101187.46
2018-04-20T05:07:50.477Z,101189.14
2018-04-20T05:10:17.986Z,101191.03
2018-04-20T05:12:45.485Z,101180.88
2018-04-20T05:15:13.145Z,101185.80
2018-04-20T05:17:40.630Z,101182.20
2018-04-20T05:20:08.113Z,101188.08
2018-04-20T05:22:35.616Z,101189.05
2018-04-20T05:25:03.114Z,101184.29
2018-04-20T05:27:30.881Z,101190.08
2018-04-20T05:29:58.401Z,101186.01
2018-04-20T05:32:25.887Z,101187.78
2018-04-20T05:34:53.410Z,101195.72
2018-04-20T05:37:20.893Z,101190.89
2018-04-20T05:39:48.632Z,101194.59
2018-04-20T05:42:16.133Z,101197.30
2018-04-20T05:44:43.615Z,101198.63
2018-04-20T05:47:11.144Z,101193.77
2018-04-20T05:49:38.644Z,101194.34
2018-04-20T05:52:06.249Z,101192.23
2018-04-20T05:54:33.757Z,101201.05
2018-04-20T05:57:01.254Z,101198.12
2018-04-20T05:59:28.758Z,101199.78
2018-04-20T06:01:59.265Z,101198.41
2018-04-20T06:04:26.845Z,101201.30
2018-04-20T06:06:54.329Z,101199.70
2018-04-20T06:09:21.831Z,101205.88
2018-04-20T06:11:49.329Z,101203.09
2018-04-20T06:14:16.841Z,101197.14
2018-04-20T06:16:44.777Z,101198.56
2018-04-20T06:19:12.270Z,101199.69
2018-04-20T06:21:39.760Z,101193.19
2018-04-20T06:24:07.278Z,101187.77
2018-04-20T06:26:34.774Z,101191.59
2018-04-20T06:29:02.442Z,101196.42
2018-04-20T06:31:29.949Z,101193.59
2018-04-20T06:33:57.449Z,101189.84
2018-04-20T06:36:24.957Z,101196.30
2018-04-20T06:38:52.436Z,101193.23
2018-04-20T06:41:19.957Z,101187.23
2018-04-20T06:43:47.433Z,101194.90
2018-04-20T06:46:14.909Z,101193.98
2018-04-20T06:48:42.413Z,101193.75
2018-04-20T06:51:09.944Z,101188.55
2018-04-20T06:53:37.649Z,101193.74
2018-04-20T06:56:05.133Z,101194.80
2018-04-20T06:58:32.624Z,101196.61
2018-04-20T07:01:00.156Z,101193.39
2018-04-20T07:03:27.730Z,101189.97
2018-04-20T07:05:55.224Z,101188.23
2018-04-20T07:08:22.709Z,101186.72
2018-04-20T07:10:50.197Z,101187.34
2018-04-20T07:13:17.744Z,101185.66
2018-04-20T07:15:45.236Z,101191.04
2018-04-20T07:18:12.913Z,101184.27
2018-04-20T07:20:40.397Z,101185.70
2018-04-20T07:23:07.894Z,101182.95
2018-04-20T07:25:35.404Z,101180.42
2018-04-20T07:28:02.889Z,101177.63
2018-04-20T07:30:30.416Z,101175.81
2018-04-20T07:32:57.921Z,101172.22
2018-04-20T07:35:25.407Z,101177.79
2018-04-20T07:37:52.917Z,101169.80
2018-04-20T07:40:20.405Z,101164.91
2018-04-20T07:42:48.065Z,101170.06
2018-04-20T07:45:15.549Z,101161.80
2018-04-20T07:47:43.045Z,101157.52
2018-04-20T07:50:10.555Z,101168.44
2018-04-20T07:52:38.044Z,101163.88
2018-04-20T07:55:05.561Z,101160.91
2018-04-20T07:57:33.059Z,101158.97
2018-04-20T08:00:00.561Z,101161.47
2018-04-20T08:02:28.068Z,101157.29
2018-04-20T08:04:55.549Z,101156.55
2018-04-20T08:07:23.268Z,101158.48
2018-04-20T08:09:50.771Z,101156.06
2018-04-20T08:12:18.269Z,101151.25
2018-04-20T08:14:45.792Z,101150.59
2018-04-20T08:17:13.285Z,101150.22
2018-04-20T08:19:40.937Z,101149.37
2018-04-20T08:22:08.425Z,101150.12
2018-04-20T08:24:35.912Z,101144.79
2018-04-20T08:27:03.434Z,101150.84
2018-04-20T08:29:30.917Z,101154.34
2018-04-20T08:31:58.468Z,101153.71
2018-04-20T08:34:25.957Z,101157.31
2018-04-20T08:36:53.445Z,101150.14
2018-04-20T08:39:20.960Z,101144.28
2018-04-20T08:41:48.448Z,101146.92
2018-04-20T08:47:06.691Z,101144.28
2018-04-20T08:49:34.249Z,101139.63
2018-04-20T08:52:01.992Z,101147.09
2018-04-20T08:54:29.489Z,101142.81
2018-04-20T08:56:56.978Z,101145.81
2018-04-20T08:59:24.481Z,101147.78
2018-04-20T09:01:51.975Z,101152.47
2018-04-20T09:04:19.511Z,101149.08
2018-04-20T09:06:46.989Z,101144.84
2018-04-20T09:09:14.498Z,101144.98
2018-04-20T09:11:42.033Z,101141.91
2018-04-20T09:14:09.509Z,101136.91
2018-04-20T09:16:37.049Z,101137.48
2018-04-20T09:19:04.561Z,101133.17
2018-04-20T09:21:32.037Z,101128.63
2018-04-20T09:23:59.540Z,101124.55
2018-04-20T09:26:27.030Z,101124.25
2018-04-20T09:28:54.546Z,101118.59
2018-04-20T09:31:22.029Z,101117.88
2018-04-20T09:33:49.522Z,101120.48
2018-04-20T09:36:17.036Z,101114.58
2018-04-20T09:38:44.524Z,101118.03
2018-04-20T09:41:12.230Z,101112.68
2018-04-20T09:43:39.724Z,101118.58
2018-04-20T09:46:07.214Z,101109.04
2018-04-20T09:48:34.726Z,101114.91
2018-04-20T09:51:02.237Z,101105.69
2018-04-20T09:53:29.891Z,101107.78
2018-04-20T09:55:57.385Z,101101.14
2018-04-20T09:58:24.914Z,101103.95
2018-04-20T10:00:52.450Z,101100.59
2018-04-20T10:03:19.940Z,101103.47
2018-04-20T10:05:47.477Z,101094.71
2018-04-20T10:08:14.965Z,101095.88
2018-04-20T10:10:42.518Z,101096.93
2018-04-20T10:13:10.026Z,101091.90
2018-04-20T10:15:37.551Z,101083.48
2018-04-20T10:18:05.097Z,101088.01
2018-04-20T10:20:32.597Z,101085.91
2018-04-20T10:23:00.141Z,101080.02
2018-04-20T10:25:27.637Z,101075.37
2018-04-20T10:27:55.120Z,101076.83
2018-04-20T10:30:22.638Z,101075.02
2018-04-20T10:32:50.126Z,101075.39
2018-04-20T10:35:17.890Z,101076.91
2018-04-20T10:37:45.365Z,101071.80
2018-04-20T10:40:12.857Z,101072.46
2018-04-20T10:42:40.408Z,101070.67
2018-04-20T10:45:07.885Z,101071.22
2018-04-20T10:47:35.424Z,101076.28
2018-04-20T10:50:02.918Z,101071.81
2018-04-20T10:52:30.406Z,101062.86
2018-04-20T10:54:57.917Z,101066.20
2018-04-20T10:57:25.425Z,101061.57
2018-04-20T10:59:53.078Z,101058.45
2018-04-20T11:02:20.552Z,101056.00
2018-04-20T11:04:48.033Z,101049.43
2018-04-20T11:07:15.541Z,101054.88
2018-04-20T11:09:43.042Z,101045.66
2018-04-20T11:12:10.708Z,101042.36
2018-04-20T11:14:38.193Z,101044.77
2018-04-20T11:17:05.690Z,101033.55
2018-04-20T11:19:33.188Z,101033.82
2018-04-20T11:22:00.674Z,101034.52
2018-04-20T11:24:28.389Z,101036.70
2018-04-20T11:26:55.873Z,101036.42
2018-04-20T11:29:23.373Z,101026.69
2018-04-20T11:31:50.876Z,101029.32
2018-04-20T11:34:18.361Z,101025.54
2018-04-20T11:36:45.869Z,101022.01
2018-04-20T11:39:13.350Z,101020.33
2018-04-20T11:41:40.857Z,101021.25
2018-04-20T11:44:08.337Z,101019.95
2018-04-20T11:46:35.877Z,101013.54
2018-04-20T11:49:03.385Z,101013.91
2018-04-20T11:51:30.870Z,101010.33
2018-04-20T11:53:58.429Z,101004.73
2018-04-20T11:56:25.882Z,101002.01
2018-04-20T11:58:53.573Z,101011.10
2018-04-20T12:01:21.053Z,101003.55
2018-04-20T12:03:48.545Z,100999.00
2018-04-20T12:06:16.064Z,100997.72
2018-04-20T12:08:43.549Z,100989.94
2018-04-20T12:11:11.057Z,100990.71
2018-04-20T12:13:38.549Z,100985.41
2018-04-20T12:16:06.061Z,100982.80
2018-04-20T12:18:33.545Z,100984.26
2018-04-20T12:21:01.049Z,100975.68
2018-04-20T12:23:28.605Z,100975.84
2018-04-20T12:25:56.084Z,100973.80
2018-04-20T12:28:23.606Z,100969.86
2018-04-20T12:30:51.105Z,100976.80
2018-04-20T12:33:18.629Z,100966.17
2018-04-20T12:35:46.114Z,100965.87
2018-04-20T12:38:13.593Z,100965.28
2018-04-20T12:40:41.101Z,100956.55
2018-04-20T12:43:08.585Z,100954.73
2018-04-20T12:45:36.127Z,100949.52
2018-04-20T12:48:03.611Z,100949.67
2018-04-20T12:50:31.253Z,100940.45
2018-04-20T12:52:58.765Z,100944.16
2018-04-20T12:55:26.256Z,100939.66
2018-04-20T12:57:53.764Z,100930.44
2018-04-20T13:00:21.256Z,100927.44
2018-04-20T13:02:48.804Z,100928.33
2018-04-20T13:05:16.297Z,100921.78
2018-04-20T13:07:43.781Z,100915.81
2018-04-20T13:10:11.289Z,100916.87
2018-04-20T13:12:38.777Z,100911.81
2018-04-20T13:15:06.289Z,100910.42
2018-04-20T13:17:33.778Z,100905.34
2018-04-20T13:20:01.522Z,100902.58
2018-04-20T13:22:29.029Z,100901.37
2018-04-20T13:24:56.529Z,100894.75
2018-04-20T13:27:24.054Z,100893.75
2018-04-20T13:29:51.793Z,100890.08
2018-04-20T13:32:19.305Z,100888.44
2018-04-20T13:34:46.793Z,100889.08
2018-04-20T13:37:14.467Z,100884.33
2018-04-20T13:39:41.953Z,100890.85
2018-04-20T13:42:09.449Z,100886.70
2018-04-20T13:44:36.968Z,100884.96
2018-04-20T13:47:04.465Z,100881.88
2018-04-20T13:49:32.005Z,100879.66
2018-04-20T13:51:59.490Z,100875.41
2018-04-20T13:54:27.034Z,100878.13
2018-04-20T13:56:54.517Z,100877.86
2018-04-20T13:59:21.997Z,100867.73
2018-04-20T14:01:49.549Z,100867.23
2018-04-20T14:04:17.198Z,100865.46
2018-04-20T14:06:44.709Z,100858.09
2018-04-20T14:09:12.193Z,100858.52
2018-04-20T14:11:39.937Z,100846.48
2018-04-20T14:14:07.424Z,100851.84
2018-04-20T14:16:34.900Z,100849.77
2018-04-20T14:19:02.401Z,100850.14
2018-04-20T14:21:29.886Z,100845.05
2018-04-20T14:23:57.424Z,100848.40
2018-04-20T14:26:24.928Z,100841.92
2018-04-20T14:28:52.439Z,100840.77
2018-04-20T14:31:19.949Z,100841.05
2018-04-20T14:33:47.465Z,100833.66
2018-04-20T14:36:14.941Z,100827.12
2018-04-20T14:38:42.417Z,100830.10
2018-04-20T14:41:09.934Z,100826.74
2018-04-20T14:43:37.438Z,100820.61
2018-04-20T14:46:05.092Z,100820.98
2018-04-20T14:48:32.573Z,100816.09
2018-04-20T14:51:00.099Z,100822.03
2018-04-20T14:53:27.639Z,100817.70
2018-04-20T14:55:55.121Z,100814.32
2018-04-20T14:58:22.632Z,100812.83
2018-04-20T15:00:50.121Z,100814.88
2018-04-20T15:03:17.637Z,100815.02
2018-04-20T15:05:45.129Z,100812.60
2018-04-20T15:08:12.669Z,100805.34
2018-04-20T15:10:40.149Z,100800.03
2018-04-20T15:13:08.113Z,100799.23
2018-04-20T15:15:35.602Z,100802.61
2018-04-20T15:18:03.085Z,100797.28
2018-04-20T15:20:30.609Z,100799.66
2018-04-20T15:22:58.084Z,100798.42
2018-04-20T15:25:25.749Z,100790.34
2018-04-20T15:27:53.233Z,100790.94
2018-04-20T15:30:20.719Z,100784.27
2018-04-20T15:32:48.243Z,100781.23
2018-04-20T15:35:15.725Z,100778.42
2018-04-20T15:37:43.418Z,100778.28
2018-04-20T15:40:10.921Z,100779.00
2018-04-20T15:42:38.401Z,100778.95
2018-04-20T15:45:05.913Z,100779.00
2018-04-20T15:47:33.409Z,100775.59
2018-04-20T15:50:00.976Z,100770.99
2018-04-20T15:52:28.457Z,100765.99
2018-04-20T15:54:56.103Z,100762.39
2018-04-20T15:57:23.581Z,100760.98
2018-04-20T15:59:51.081Z,100762.92
2018-04-20T16:02:18.585Z,100759.02
2018-04-20T16:04:46.076Z,100758.97
2018-04-20T16:07:13.595Z,100756.86
2018-04-20T16:09:41.080Z,100748.86
2018-04-20T16:12:08.853Z,100747.73
2018-04-20T16:14:36.334Z,100749.58
2018-04-20T16:17:03.821Z,100745.58
2018-04-20T16:19:31.356Z,100747.81
2018-04-20T16:21:58.836Z,100743.06
2018-04-20T16:24:26.376Z,100748.59
2018-04-20T16:26:53.867Z,100743.15
2018-04-20T16:29:21.349Z,100739.27
2018-04-20T16:31:48.889Z,100743.51
2018-04-20T16:34:16.392Z,100740.38
2018-04-20T16:36:44.100Z,100738.41
2018-04-20T16:39:11.660Z,100738.01
2018-04-20T16:41:39.112Z,100734.53
2018-04-20T16:44:06.617Z,100730.15
2018-04-20T16:46:34.097Z,100728.74
2018-04-20T16:49:01.613Z,100723.56
2018-04-20T16:51:29.098Z,100725.05
2018-04-20T16:53:56.638Z,100716.53
2018-04-20T16:56:24.130Z,100725.52
2018-04-20T16:58:51.621Z,100721.92
2018-04-20T17:01:19.212Z,100722.64
2018-04-20T17:03:46.661Z,100720.20
2018-04-20T17:06:14.170Z,100715.81
2018-04-20T17:08:41.653Z,100719.08
2018-04-20T17:11:09.169Z,100713.83
2018-04-20T17:13:36.666Z,100713.03
2018-04-20T17:16:04.172Z,100713.18
2018-04-20T17:18:31.672Z,100712.18
2018-04-20T17:20:59.152Z,100717.61
2018-04-20T17:23:26.656Z,100711.09
2018-04-20T17:25:54.366Z,100705.97
2018-04-20T17:28:21.865Z,100706.89
2018-04-20T17:30:49.346Z,100707.02
2018-04-20T17:33:17.259Z,100702.72
2018-04-20T17:35:44.782Z,100703.70
2018-04-20T17:38:12.269Z,100701.09
2018-04-20T17:40:39.772Z,100702.23
2018-04-20T17:43:07.259Z,100700.70
2018-04-20T17:45:34.794Z,100707.14
2018-04-20T17:48:02.276Z,100699.67
2018-04-20T17:50:29.808Z,100705.13
2018-04-20T17:52:57.293Z,100707.20
2018-04-20T17:55:24.785Z,100711.19
2018-04-20T17:57:52.292Z,100717.42
2018-04-20T18:00:19.775Z,100714.10
2018-04-20T18:02:47.288Z,100714.13
2018-04-20T18:05:14.802Z,100717.16
2018-04-20T18:07:42.537Z,100715.09
2018-04-20T18:10:10.049Z,100721.89
2018-04-20T18:12:37.529Z,100724.70
2018-04-20T18:15:05.036Z,100719.31
2018-04-20T18:17:32.543Z,100721.34
2018-04-20T18:20:00.052Z,100720.92
2018-04-20T18:22:27.529Z,100722.96
2018-04-20T18:24:55.366Z,100721.98
2018-04-20T18:27:22.849Z,100721.00
2018-04-20T18:29:50.329Z,100723.08
2018-04-20T18:32:17.837Z,100725.18
2018-04-20T18:34:45.316Z,100728.33
2018-04-20T18:37:12.821Z,100731.95
2018-04-20T18:39:40.313Z,100733.02
2018-04-20T18:42:08.030Z,100731.87
2018-04-20T18:44:35.521Z,100735.37
2018-04-20T18:47:03.004Z,100741.77
2018-04-20T18:49:30.505Z,100739.38
2018-04-20T18:51:58.312Z,100740.94
2018-04-20T18:54:25.875Z,100746.35
2018-04-20T18:56:53.361Z,100750.80
2018-04-20T18:59:20.837Z,100751.73
2018-04-20T19:01:48.442Z,100755.20
2018-04-20T19:04:15.926Z,100754.12
2018-04-20T19:06:43.448Z,100758.66
2018-04-20T19:09:10.958Z,100762.95
2018-04-20T19:11:38.703Z,100763.09
2018-04-20T19:14:06.209Z,100759.44
2018-04-20T19:16:33.715Z,100764.13
2018-04-20T19:19:01.225Z,100766.11
2018-04-20T19:21:28.713Z,100761.44
2018-04-20T19:23:56.629Z,100762.41
2018-04-20T19:26:24.113Z,100771.56
2018-04-20T19:28:51.593Z,100764.17
2018-04-20T19:31:19.105Z,100766.39
2018-04-20T19:33:46.610Z,100772.56
2018-04-20T19:36:14.149Z,100776.25
2018-04-20T19:38:41.690Z,100771.70
2018-04-20T19:41:09.209Z,100778.02
2018-04-20T19:43:36.745Z,100781.45
2018-04-20T19:46:04.257Z,100773.34
2018-04-20T19:48:31.733Z,100774.77
2018-04-20T19:50:59.277Z,100767.62
2018-04-20T19:53:26.811Z,100778.20
2018-04-20T19:55:54.305Z,100785.05
2018-04-20T19:58:21.809Z,100782.75
2018-04-20T20:00:49.293Z,100780.52
2018-04-20T20:03:17.119Z,100781.17
2018-04-20T20:05:44.605Z,100779.20
2018-04-20T20:08:12.107Z,100782.64
2018-04-20T20:10:39.610Z,100778.95
2018-04-20T20:13:07.102Z,100780.66
2018-04-20T20:15:34.752Z,100788.25
2018-04-20T20:18:02.285Z,100786.30
2018-04-20T20:20:29.788Z,100786.50
2018-04-20T20:22:57.304Z,100787.13
2018-04-20T20:25:24.797Z,100775.95
2018-04-20T20:27:52.493Z,100780.89
2018-04-20T20:30:19.977Z,100775.47
2018-04-20T20:32:47.458Z,100772.33
2018-04-20T20:35:14.995Z,100773.72
2018-04-20T20:37:42.481Z,100772.78
2018-04-20T20:40:10.273Z,100774.30
2018-04-20T20:42:37.761Z,100774.41
2018-04-20T20:45:05.246Z,100779.83
2018-04-20T20:47:32.765Z,100778.48
2018-04-20T20:50:00.261Z,100776.48
2018-04-20T20:52:27.913Z,100770.78
2018-04-20T20:54:55.402Z,100774.62
2018-04-20T20:57:22.955Z,100782.91
2018-04-20T20:59:50.476Z,100778.42
2018-04-20T21:02:17.968Z,100783.09
2018-04-20T21:04:45.665Z,100778.38
2018-04-20T21:07:13.179Z,100785.77
2018-04-20T21:09:40.675Z,100778.16
2018-04-20T21:12:08.176Z,100779.91
2018-04-20T21:14:35.673Z,100779.57
2018-04-20T21:17:03.188Z,100788.36
2018-04-20T21:19:30.702Z,100780.75
2018-04-20T21:21:58.185Z,100775.92
2018-04-20T21:24:25.772Z,100774.27
2018-04-20T21:26:53.305Z,100774.19
2018-04-20T21:29:20.849Z,100770.01
2018-04-20T21:31:48.366Z,100775.28
2018-04-20T21:34:15.852Z,100771.81
2018-04-20T21:36:43.392Z,100774.03
2018-04-20T21:39:10.873Z,100771.28
2018-04-20T21:41:38.353Z,100765.32
2018-04-20T21:44:05.862Z,100769.73
2018-04-20T21:46:33.342Z,100762.37
2018-04-20T21:49:00.818Z,100764.22
2018-04-20T21:51:28.357Z,100756.81
2018-04-20T21:53:55.841Z,100762.06
2018-04-20T21:56:23.321Z,100764.77
2018-04-20T21:58:50.862Z,100765.28
2018-04-20T22:01:18.366Z,100763.58
2018-04-20T22:03:45.857Z,100764.50
2018-04-20T22:06:13.377Z,100759.87
2018-04-20T22:08:40.881Z,100768.95
2018-04-20T22:11:08.357Z,100770.28
2018-04-20T22:13:36.049Z,100767.27
2018-04-20T22:16:03.543Z,100765.41
2018-04-20T22:18:31.076Z,100765.13
2018-04-20T22:20:58.757Z,100764.84
2018-04-20T22:23:26.233Z,100772.27
2018-04-20T22:25:53.721Z,100768.63
2018-04-20T22:28:21.369Z,100771.25
2018-04-20T22:30:48.849Z,100773.74
2018-04-20T22:33:16.325Z,100771.47
2018-04-20T22:35:43.965Z,100778.24
2018-04-20T22:38:11.457Z,100772.94
2018-04-20T22:40:38.941Z,100778.20
2018-04-20T22:43:06.473Z,100780.71
2018-04-20T22:45:33.968Z,100779.02
2018-04-20T22:48:01.453Z,100792.41
2018-04-20T22:50:29.221Z,100790.09
2018-04-20T22:52:56.701Z,100791.86
2018-04-20T22:55:24.181Z,100791.62
2018-04-20T22:57:51.690Z,100790.08
2018-04-20T23:00:23.162Z,100793.52
2018-04-20T23:02:50.662Z,100788.83
2018-04-20T23:05:18.194Z,100790.14
2018-04-20T23:07:45.681Z,100792.44
2018-04-20T23:10:13.168Z,100788.69
2018-04-20T23:12:40.692Z,100790.03
2018-04-20T23:15:08.177Z,100789.98
2018-04-20T23:17:35.654Z,100788.01
2018-04-20T23:20:03.164Z,100785.11
2018-04-20T23:22:30.641Z,100788.67
2018-04-20T23:24:58.144Z,100775.63
2018-04-20T23:27:25.657Z,100781.25
2018-04-20T23:29:53.145Z,100782.48
2018-04-20T23:32:20.629Z,100779.66
2018-04-20T23:34:48.145Z,100785.68
2018-04-20T23:37:15.669Z,100771.83
2018-04-20T23:39:43.164Z,100769.30
2018-04-20T23:42:10.685Z,100771.83
2018-04-20T23:44:38.169Z,100768.23
2018-04-20T23:47:05.657Z,100759.59
2018-04-20T23:49:33.396Z,100763.71
2018-04-20T23:52:00.889Z,100762.07
2018-04-20T23:54:28.373Z,100763.73
2018-04-20T23:56:55.884Z,100754.30
2018-04-20T23:59:23.393Z,100764.70
